Airfield :
LOGIN :

Register | Disclaimer

   EN    FR    IT 

 










Legend :    VFR   Marginal VFR   IFR   Intensive IFR   Very Intensive IFR
Visi :
Ceiling :
>= 8 km
>= 3000ft
5 to 8 km
1000 to 3000 ft
1500m to 5 km
500 to 1000 ft
800 to 1500m
200 to 500 ft
< 800m
< 200 ft
Symbols :   Thunderstorms  Fog  Heavy snow  Heavy precipitations  Wind > 20 kt
SIGMETs :     Misc.  Thunderstorms  Icing  Turbulence  Mountain Waves  Volcanic Ashes







- Airport Elevation : 0 ft


ENSL - Sleipner A Platform

CURRENT METAR :
  • 241250Z AUTO 19028KT 9999NDV NCD 16/15 Q1020 W14/S3

EXPIRED METARs :
  • 241220Z AUTO 19027KT 9999NDV NCD 16/15 Q1020 W14/S3
  • 241150Z AUTO 20027KT 9999NDV NCD 16/15 Q1020 W14/S3
  • 241120Z AUTO 20027KT 9999NDV NCD 16/15 Q1020 W14/S3
  • 241050Z AUTO 19027KT 9999NDV NCD 16/15 Q1019 W14/S3
  • 241020Z AUTO 19029KT 9999NDV NCD 16/15 Q1019 W14/S3

Expired Forecast.
No reported NOTAMs for that airfield.



MET'MAP, your aeronautical weather chart ! - Copyright ORBIFLY December 2007 - Disclaimer

ORBIFLY MET'MAP TEAM :

Programming & Development : Alexandra Zaïnal
Concept & Development : Baudouin d'Aumeries
Co-Development & Prog : Marc-Olivier Méhu
Technical & hardware support : Manuel Goepfert

Contact : metmap@orbifly.com




SOURCES & CREDITS :

   NOAA